createdAt,value
2023-02-17T00:00:12.543Z,99.90
2023-02-17T00:02:40.117Z,99.90
2023-02-17T00:05:07.140Z,99.90
2023-02-17T00:07:34.021Z,72.10
2023-02-17T00:10:01.250Z,25.80
2023-02-17T00:12:28.042Z,21.20
2023-02-17T00:14:54.855Z,1.00
2023-02-17T00:17:21.714Z,20.40
2023-02-17T00:19:48.804Z,60.90
2023-02-17T00:22:15.599Z,19.90
2023-02-17T00:24:42.583Z,34.90
2023-02-17T00:27:10.312Z,81.20
2023-02-17T00:29:37.477Z,99.90
2023-02-17T00:32:04.421Z,99.90
2023-02-17T00:34:32.445Z,99.90
2023-02-17T00:36:59.340Z,99.90
2023-02-17T00:39:26.329Z,99.90
2023-02-17T00:41:53.154Z,99.90
2023-02-17T00:44:22.627Z,99.90
2023-02-17T00:46:49.693Z,99.90
2023-02-17T00:49:21.358Z,99.90
2023-02-17T00:51:48.289Z,99.90
2023-02-17T00:54:15.748Z,99.90
2023-02-17T00:56:42.892Z,99.90
2023-02-17T00:59:10.117Z,99.90
2023-02-17T01:01:38.276Z,99.90
2023-02-17T01:04:05.487Z,99.90
2023-02-17T01:06:35.127Z,88.70
2023-02-17T01:09:02.544Z,73.70
2023-02-17T01:11:32.332Z,31.60
2023-02-17T01:13:59.977Z,67.00
2023-02-17T01:16:30.228Z,99.90
2023-02-17T01:18:57.018Z,65.20
2023-02-17T01:21:26.635Z,41.00
2023-02-17T01:23:55.607Z,39.60
2023-02-17T01:26:25.305Z,1.90
2023-02-17T01:28:53.298Z,1.00
2023-02-17T01:31:22.016Z,1.00
2023-02-17T01:33:49.325Z,1.00
2023-02-17T01:36:18.083Z,1.00
2023-02-17T01:38:46.542Z,1.00
2023-02-17T01:41:14.675Z,13.90
2023-02-17T01:43:41.578Z,1.00
2023-02-17T01:46:09.450Z,21.00
2023-02-17T01:48:38.905Z,1.00
2023-02-17T01:51:13.789Z,7.90
2023-02-17T01:53:44.423Z,48.70
2023-02-17T01:56:12.183Z,1.00
2023-02-17T01:58:42.180Z,50.40
2023-02-17T02:01:09.083Z,20.00
2023-02-17T02:03:37.073Z,59.00
2023-02-17T02:06:07.365Z,15.50
2023-02-17T02:08:57.735Z,55.30
2023-02-17T02:11:24.598Z,99.90
2023-02-17T02:13:51.633Z,98.90
2023-02-17T02:16:31.824Z,81.20
2023-02-17T02:19:15.634Z,60.00
2023-02-17T02:21:51.638Z,33.50
2023-02-17T02:24:33.290Z,18.30
2023-02-17T02:27:10.000Z,62.60
2023-02-17T02:30:02.776Z,1.00
2023-02-17T02:32:45.226Z,4.30
2023-02-17T02:35:37.999Z,12.40
2023-02-17T02:38:13.919Z,35.70
2023-02-17T02:40:45.056Z,66.30
2023-02-17T02:43:12.314Z,47.70
2023-02-17T02:45:39.218Z,27.70
2023-02-17T02:48:06.094Z,1.00
2023-02-17T02:50:46.277Z,1.00
2023-02-17T02:53:34.345Z,9.10
2023-02-17T02:56:01.121Z,11.50
2023-02-17T02:59:00.039Z,1.60
2023-02-17T03:01:37.207Z,24.30
2023-02-17T03:04:23.555Z,75.70
2023-02-17T03:06:57.613Z,34.80
2023-02-17T03:09:26.860Z,65.70
2023-02-17T03:11:55.214Z,29.40
2023-02-17T03:14:22.651Z,22.10
2023-02-17T03:16:50.379Z,26.10
2023-02-17T03:19:18.823Z,57.10
2023-02-17T03:21:59.713Z,66.00
2023-02-17T03:24:26.498Z,80.50
2023-02-17T03:26:53.368Z,57.50
2023-02-17T03:29:20.239Z,99.90
2023-02-17T03:31:47.151Z,99.90
2023-02-17T03:34:13.969Z,99.90
2023-02-17T03:36:40.768Z,99.90
2023-02-17T03:39:07.620Z,99.90
2023-02-17T03:41:34.463Z,99.90
2023-02-17T03:44:01.839Z,99.90
2023-02-17T03:46:28.646Z,99.90
2023-02-17T03:48:55.395Z,99.90
2023-02-17T03:51:23.788Z,99.90
2023-02-17T03:53:51.174Z,99.90
2023-02-17T03:56:19.334Z,99.90
2023-02-17T03:58:46.318Z,99.90
2023-02-17T04:01:13.591Z,99.90
2023-02-17T04:03:41.074Z,99.90
2023-02-17T04:06:08.798Z,99.90
2023-02-17T04:08:35.951Z,99.90
2023-02-17T04:11:04.647Z,99.90
2023-02-17T04:13:32.016Z,99.90
2023-02-17T04:15:59.172Z,99.90
2023-02-17T04:18:26.023Z,99.90
2023-02-17T04:20:54.120Z,99.90
2023-02-17T04:23:20.956Z,99.90
2023-02-17T04:25:48.035Z,99.90
2023-02-17T04:28:15.455Z,99.90
2023-02-17T04:30:47.500Z,99.90
2023-02-17T04:33:15.024Z,1.00
2023-02-17T04:35:42.266Z,1.00
2023-02-17T04:38:10.652Z,1.00
2023-02-17T04:40:38.222Z,1.00
2023-02-17T04:43:05.409Z,1.00
2023-02-17T04:45:32.287Z,1.00
2023-02-17T04:47:59.108Z,1.00
2023-02-17T04:50:25.899Z,1.00
2023-02-17T04:52:52.803Z,1.00
2023-02-17T04:55:19.754Z,1.00
2023-02-17T04:57:46.724Z,1.00
2023-02-17T05:00:13.809Z,1.00
2023-02-17T05:02:40.763Z,1.00
2023-02-17T05:05:07.836Z,1.00
2023-02-17T05:07:34.724Z,1.00
2023-02-17T05:10:01.534Z,1.00
2023-02-17T05:12:28.284Z,1.00
2023-02-17T05:14:55.121Z,1.00
2023-02-17T05:17:21.941Z,1.00
2023-02-17T05:19:48.722Z,1.00
2023-02-17T05:22:15.538Z,1.00
2023-02-17T05:24:42.289Z,1.00
2023-02-17T05:27:09.164Z,1.00
2023-02-17T05:29:36.097Z,1.00
2023-02-17T05:32:03.220Z,39.00
2023-02-17T05:34:30.238Z,40.10
2023-02-17T05:36:57.103Z,78.50
2023-02-17T05:39:23.887Z,97.70
2023-02-17T05:41:50.761Z,99.90
2023-02-17T05:44:18.273Z,99.90
2023-02-17T05:46:45.104Z,99.90
2023-02-17T05:49:11.902Z,99.90
2023-02-17T05:51:38.920Z,99.90
2023-02-17T05:54:06.162Z,99.90
2023-02-17T05:56:32.969Z,99.90
2023-02-17T05:59:00.613Z,99.90
2023-02-17T06:01:27.484Z,99.90
2023-02-17T06:03:54.340Z,99.90
2023-02-17T06:06:21.304Z,99.90
2023-02-17T06:08:48.141Z,99.90
2023-02-17T06:11:14.966Z,99.90
2023-02-17T06:13:41.911Z,1.00
2023-02-17T06:16:09.008Z,99.90
2023-02-17T06:18:36.026Z,99.90
2023-02-17T06:21:02.837Z,99.90
2023-02-17T06:23:30.041Z,99.90
2023-02-17T06:25:56.857Z,99.90
2023-02-17T06:28:23.754Z,1.00
2023-02-17T06:30:50.618Z,1.00
2023-02-17T06:33:17.435Z,1.00
2023-02-17T06:35:48.699Z,1.00
2023-02-17T06:38:15.812Z,1.00
2023-02-17T06:40:42.708Z,1.00
2023-02-17T06:43:09.484Z,1.00
2023-02-17T06:45:36.312Z,1.00
2023-02-17T06:48:03.148Z,1.00
2023-02-17T06:50:29.975Z,1.00
2023-02-17T06:52:56.864Z,1.00
2023-02-17T06:55:23.750Z,1.00
2023-02-17T06:57:50.519Z,1.00
2023-02-17T07:00:17.700Z,1.00
2023-02-17T07:02:44.519Z,1.00
2023-02-17T07:05:11.357Z,1.00
2023-02-17T07:07:38.146Z,1.00
2023-02-17T07:10:05.866Z,1.00
2023-02-17T07:12:32.661Z,1.00
2023-02-17T07:14:59.467Z,1.00
2023-02-17T07:17:26.872Z,1.00
2023-02-17T07:19:53.683Z,99.90
2023-02-17T07:22:21.656Z,99.90
2023-02-17T07:24:48.471Z,99.90
2023-02-17T07:27:15.930Z,99.90
2023-02-17T07:29:42.735Z,99.90
2023-02-17T07:32:09.650Z,99.90
2023-02-17T07:34:37.830Z,99.90
2023-02-17T07:37:04.664Z,99.90
2023-02-17T07:39:31.460Z,99.90
2023-02-17T07:42:01.083Z,99.90
2023-02-17T07:44:28.208Z,99.90
2023-02-17T07:46:55.164Z,99.90
2023-02-17T07:49:22.183Z,99.90
2023-02-17T07:51:49.120Z,99.90
2023-02-17T07:54:16.081Z,99.90
2023-02-17T07:56:43.038Z,73.10
2023-02-17T07:59:11.113Z,40.00
2023-02-17T08:01:38.471Z,35.10
2023-02-17T08:04:05.389Z,1.80
2023-02-17T08:06:32.569Z,1.00
2023-02-17T08:09:18.090Z,1.00
2023-02-17T08:12:03.623Z,1.00
2023-02-17T08:14:32.218Z,1.00
2023-02-17T08:16:59.273Z,1.00
2023-02-17T08:19:31.767Z,1.00
2023-02-17T08:22:06.383Z,1.00
2023-02-17T08:24:33.260Z,1.00
2023-02-17T08:27:00.138Z,1.00
2023-02-17T08:29:27.299Z,1.00
2023-02-17T08:31:54.332Z,1.00
2023-02-17T08:34:21.289Z,1.00
2023-02-17T08:36:48.268Z,1.00
2023-02-17T08:39:17.549Z,99.90
2023-02-17T08:41:45.490Z,99.90
2023-02-17T08:44:18.731Z,99.90
2023-02-17T08:46:48.065Z,99.90
2023-02-17T09:23:50.007Z,1.00
2023-02-17T09:26:17.993Z,1.00
2023-02-17T09:28:45.328Z,1.00
2023-02-17T09:31:14.795Z,1.00
2023-02-17T09:33:42.475Z,1.00
2023-02-17T09:36:11.212Z,1.00
2023-02-17T09:38:39.443Z,1.00
2023-02-17T09:41:17.916Z,1.00
2023-02-17T09:43:45.280Z,1.00
2023-02-17T09:46:17.079Z,1.00
2023-02-17T09:48:44.939Z,1.00
2023-02-17T09:51:21.932Z,1.00
2023-02-17T09:53:54.466Z,1.00
2023-02-17T09:56:32.622Z,1.00
2023-02-17T09:59:04.581Z,1.00
2023-02-17T10:01:34.138Z,1.00
2023-02-17T10:04:15.103Z,1.00
2023-02-17T10:06:51.697Z,1.00
2023-02-17T10:09:24.364Z,1.00
2023-02-17T10:12:01.197Z,1.00
2023-02-17T10:14:34.892Z,99.90
2023-02-17T10:17:10.622Z,99.90
2023-02-17T10:19:45.617Z,99.90
2023-02-17T10:22:18.904Z,64.20
2023-02-17T10:24:45.837Z,99.90
2023-02-17T10:27:40.429Z,99.90
2023-02-17T10:30:58.603Z,1.00
2023-02-17T10:33:28.289Z,1.00
2023-02-17T10:36:34.008Z,99.90
2023-02-17T10:39:11.732Z,1.00
2023-02-17T10:41:40.425Z,1.00
2023-02-17T10:44:11.923Z,1.00
2023-02-17T10:46:40.704Z,99.90
2023-02-17T10:49:17.076Z,1.00
2023-02-17T10:51:43.903Z,1.00
2023-02-17T10:54:27.212Z,1.00
2023-02-17T10:56:55.094Z,1.00
2023-02-17T10:59:25.428Z,1.00
2023-02-17T11:01:52.550Z,1.00
2023-02-17T11:04:19.399Z,1.00
2023-02-17T11:06:51.985Z,99.90
2023-02-17T11:09:32.897Z,1.00
2023-02-17T11:12:01.494Z,1.00
2023-02-17T11:14:30.783Z,1.00
2023-02-17T11:17:02.809Z,1.00
2023-02-17T11:19:35.162Z,99.90
2023-02-17T11:22:05.185Z,1.00
2023-02-17T11:24:34.159Z,1.00
2023-02-17T11:27:03.851Z,1.00
2023-02-17T11:29:31.213Z,1.00
2023-02-17T11:31:59.339Z,1.00
2023-02-17T11:34:30.083Z,1.00
2023-02-17T11:37:01.377Z,1.00
2023-02-17T11:39:28.628Z,1.00
2023-02-17T11:41:55.733Z,99.90
2023-02-17T11:44:24.812Z,1.00
2023-02-17T11:47:20.913Z,1.00
2023-02-17T11:50:24.058Z,1.00
2023-02-17T11:53:30.920Z,1.00
2023-02-17T11:56:19.758Z,1.00
2023-02-17T11:58:55.602Z,1.00
2023-02-17T12:01:25.335Z,1.00
2023-02-17T12:04:17.001Z,1.00
2023-02-17T12:07:21.012Z,99.90
2023-02-17T12:10:05.717Z,1.00
2023-02-17T12:12:41.633Z,1.00
2023-02-17T12:15:36.286Z,99.90
2023-02-17T12:18:06.082Z,99.90
2023-02-17T12:20:45.879Z,99.90
2023-02-17T12:23:12.688Z,99.90
2023-02-17T12:25:42.991Z,99.90
2023-02-17T12:28:28.059Z,99.90
2023-02-17T12:31:11.878Z,99.90
2023-02-17T12:33:50.697Z,99.90
2023-02-17T12:36:19.841Z,99.90
2023-02-17T12:39:12.822Z,99.90
2023-02-17T12:41:45.687Z,1.00
2023-02-17T12:44:15.964Z,38.10
2023-02-17T12:46:45.247Z,99.90
2023-02-17T12:49:18.126Z,1.00
2023-02-17T12:51:54.980Z,1.00
2023-02-17T12:54:30.663Z,75.20
2023-02-17T12:57:00.690Z,1.00
2023-02-17T12:59:33.913Z,13.40
2023-02-17T13:02:07.845Z,1.00
2023-02-17T13:04:35.328Z,99.90
2023-02-17T13:07:19.121Z,1.00
2023-02-17T13:09:48.958Z,1.00
2023-02-17T13:12:25.092Z,1.00
2023-02-17T13:14:52.936Z,1.00
2023-02-17T13:17:30.178Z,1.00
2023-02-17T13:20:07.878Z,1.00
2023-02-17T13:22:34.852Z,1.00
2023-02-17T13:25:02.269Z,1.00
2023-02-17T13:27:29.182Z,1.00
2023-02-17T13:30:15.848Z,1.00
2023-02-17T13:32:43.245Z,1.00
2023-02-17T13:35:25.860Z,1.00
2023-02-17T13:37:53.047Z,1.00
2023-02-17T13:40:19.892Z,1.00
2023-02-17T13:42:51.038Z,1.00
2023-02-17T13:45:29.070Z,1.00
2023-02-17T13:48:00.257Z,1.00
2023-02-17T13:50:34.253Z,1.00
2023-02-17T13:53:02.703Z,23.10
2023-02-17T13:55:30.105Z,1.00
2023-02-17T13:57:59.130Z,1.00
2023-02-17T14:00:27.731Z,1.00
2023-02-17T14:02:58.241Z,1.00
2023-02-17T14:05:42.035Z,9.60
2023-02-17T14:08:24.286Z,1.00
2023-02-17T14:10:51.193Z,58.80
2023-02-17T14:13:18.209Z,1.00
2023-02-17T14:15:51.395Z,51.10
2023-02-17T14:18:28.550Z,47.70
2023-02-17T14:21:08.469Z,99.90
2023-02-17T14:23:51.625Z,99.90
2023-02-17T14:26:29.971Z,99.90
2023-02-17T14:29:02.984Z,99.90
2023-02-17T14:31:30.116Z,99.90
2023-02-17T14:34:02.253Z,99.90
2023-02-17T14:36:37.401Z,99.90
2023-02-17T14:39:06.848Z,99.90
2023-02-17T14:41:34.379Z,99.90
2023-02-17T14:44:01.343Z,99.90
2023-02-17T14:46:28.394Z,99.90
2023-02-17T14:48:55.433Z,99.90
2023-02-17T14:51:24.419Z,99.90
2023-02-17T14:53:51.905Z,99.90
2023-02-17T14:56:25.703Z,99.90
2023-02-17T14:58:53.161Z,99.90
2023-02-17T15:01:22.473Z,99.90
2023-02-17T15:03:49.408Z,99.90
2023-02-17T15:06:22.469Z,1.00
2023-02-17T15:08:49.744Z,1.00
2023-02-17T15:11:20.602Z,1.00
2023-02-17T15:13:47.582Z,1.00
2023-02-17T15:16:14.530Z,1.00
2023-02-17T15:18:41.717Z,1.00
2023-02-17T15:21:27.218Z,1.00
2023-02-17T15:23:55.316Z,1.00
2023-02-17T15:26:22.544Z,1.00
2023-02-17T15:28:49.768Z,1.00
2023-02-17T15:31:17.343Z,1.00
2023-02-17T15:33:44.676Z,1.00
2023-02-17T15:36:14.730Z,1.00
2023-02-17T15:38:41.916Z,1.00
2023-02-17T15:41:18.304Z,1.00
2023-02-17T15:43:46.276Z,1.00
2023-02-17T15:46:15.431Z,1.00
2023-02-17T15:48:43.460Z,1.00
2023-02-17T15:51:15.260Z,1.00
2023-02-17T15:53:42.334Z,1.00
2023-02-17T15:56:15.182Z,1.00
2023-02-17T15:58:42.387Z,1.00
2023-02-17T16:01:22.684Z,3.60
2023-02-17T16:03:49.473Z,1.00
2023-02-17T16:06:16.302Z,1.00
2023-02-17T16:08:43.116Z,81.20
2023-02-17T16:11:12.996Z,77.20
2023-02-17T16:13:40.872Z,34.70
2023-02-17T16:16:23.633Z,49.80
2023-02-17T16:18:51.358Z,87.20
2023-02-17T16:21:18.259Z,99.90
2023-02-17T16:23:45.046Z,99.90
2023-02-17T16:26:34.571Z,99.90
2023-02-17T16:29:13.975Z,99.90
2023-02-17T16:31:41.080Z,99.90
2023-02-17T16:34:08.115Z,99.90
2023-02-17T16:36:35.459Z,99.90
2023-02-17T16:39:06.861Z,99.90
2023-02-17T16:41:33.646Z,99.90
2023-02-17T16:44:00.473Z,99.90
2023-02-17T16:46:30.140Z,99.90
2023-02-17T16:48:58.115Z,99.90
2023-02-17T16:51:25.007Z,99.90
2023-02-17T16:53:52.353Z,99.90
2023-02-17T16:56:30.429Z,99.90
2023-02-17T16:58:57.332Z,99.90
2023-02-17T17:01:24.428Z,99.90
2023-02-17T17:03:51.459Z,99.90
2023-02-17T17:06:24.565Z,99.90
2023-02-17T17:08:52.083Z,99.90
2023-02-17T17:11:24.866Z,99.90
2023-02-17T17:13:52.554Z,99.90
2023-02-17T17:16:21.835Z,1.00
2023-02-17T17:18:48.781Z,1.00
2023-02-17T17:21:17.249Z,1.00
2023-02-17T17:23:46.340Z,1.00
2023-02-17T17:26:32.908Z,1.00
2023-02-17T17:28:59.873Z,1.00
2023-02-17T17:31:27.822Z,1.00
2023-02-17T17:33:55.302Z,1.00
2023-02-17T17:36:26.412Z,1.00
2023-02-17T17:38:54.003Z,1.00
2023-02-17T17:41:22.267Z,1.00
2023-02-17T17:43:49.836Z,1.00
2023-02-17T17:46:20.658Z,1.00
2023-02-17T17:48:48.324Z,1.00
2023-02-17T17:51:18.087Z,1.00
2023-02-17T17:53:45.479Z,1.00
2023-02-17T17:56:36.273Z,1.00
2023-02-17T17:59:03.895Z,1.00
2023-02-17T18:01:30.959Z,1.00
2023-02-17T18:03:59.681Z,1.00
2023-02-17T18:06:51.756Z,1.00
2023-02-17T18:09:31.626Z,1.00
2023-02-17T18:12:01.917Z,1.00
2023-02-17T18:14:29.283Z,1.00
2023-02-17T18:16:57.187Z,1.00
2023-02-17T18:19:24.083Z,1.00
2023-02-17T18:21:51.006Z,1.00
2023-02-17T18:24:17.782Z,1.00
2023-02-17T18:26:44.548Z,1.00
2023-02-17T18:29:11.347Z,1.00
2023-02-17T18:31:38.247Z,1.00
2023-02-17T18:34:05.199Z,1.00
2023-02-17T18:36:32.165Z,1.00
2023-02-17T18:38:59.085Z,7.50
2023-02-17T18:41:29.155Z,1.00
2023-02-17T18:43:57.722Z,34.20
2023-02-17T18:46:26.816Z,99.90
2023-02-17T18:48:54.918Z,99.90
2023-02-17T18:51:23.493Z,99.90
2023-02-17T18:53:51.035Z,99.90
2023-02-17T18:56:21.071Z,99.90
2023-02-17T18:58:49.673Z,99.90
2023-02-17T19:01:21.324Z,99.90
2023-02-17T19:03:48.294Z,99.90
2023-02-17T19:06:17.637Z,99.90
2023-02-17T19:08:45.972Z,99.90
2023-02-17T19:11:13.965Z,99.90
2023-02-17T19:13:41.796Z,99.90
2023-02-17T19:16:20.599Z,99.90
2023-02-17T19:18:47.869Z,99.90
2023-02-17T19:21:15.353Z,99.90
2023-02-17T19:23:42.740Z,99.90
2023-02-17T19:26:10.577Z,99.90
2023-02-17T19:28:38.380Z,99.90
2023-02-17T19:31:07.290Z,99.90
2023-02-17T19:33:34.351Z,99.90
2023-02-17T19:36:06.586Z,99.90
2023-02-17T19:38:33.623Z,99.90
2023-02-17T19:41:05.524Z,99.90
2023-02-17T19:43:32.396Z,1.00
2023-02-17T19:45:59.290Z,1.00
2023-02-17T19:48:26.452Z,1.00
2023-02-17T19:50:59.339Z,1.00
2023-02-17T19:53:26.620Z,1.00
2023-02-17T19:55:53.624Z,1.00
2023-02-17T19:58:20.437Z,1.00
2023-02-17T20:00:47.309Z,1.00
2023-02-17T20:03:14.166Z,1.00
2023-02-17T20:05:41.719Z,1.00
2023-02-17T20:08:08.597Z,1.00
2023-02-17T20:10:35.440Z,1.00
2023-02-17T20:13:02.304Z,1.00
2023-02-17T20:15:29.089Z,1.00
2023-02-17T20:17:55.897Z,1.00
2023-02-17T20:20:22.715Z,1.00
2023-02-17T20:22:49.518Z,1.00
2023-02-17T20:25:16.374Z,1.00
2023-02-17T20:27:43.244Z,1.00
2023-02-17T20:30:10.515Z,1.00
2023-02-17T20:32:37.457Z,1.00
2023-02-17T20:35:04.585Z,1.00
2023-02-17T20:37:31.466Z,1.00
2023-02-17T20:39:58.328Z,1.00
2023-02-17T20:42:25.121Z,1.00
2023-02-17T20:44:51.968Z,1.00
2023-02-17T20:47:18.861Z,1.00
2023-02-17T20:49:45.702Z,1.00
2023-02-17T20:52:12.703Z,1.00
2023-02-17T20:54:39.483Z,1.00
2023-02-17T20:57:12.810Z,1.00
2023-02-17T20:59:39.574Z,1.00
2023-02-17T21:02:07.234Z,1.00
2023-02-17T21:04:34.055Z,1.00
2023-02-17T21:07:01.575Z,1.00
2023-02-17T21:09:28.399Z,1.00
2023-02-17T21:11:55.388Z,1.00
2023-02-17T21:14:22.231Z,1.00
2023-02-17T21:16:49.761Z,1.00
2023-02-17T21:19:16.788Z,1.00
2023-02-17T21:21:43.658Z,1.00
2023-02-17T21:24:10.554Z,4.30
2023-02-17T21:26:38.089Z,23.60
2023-02-17T21:29:05.103Z,39.20
2023-02-17T21:31:32.111Z,58.00
2023-02-17T21:33:59.859Z,88.10
2023-02-17T21:36:29.099Z,99.90
2023-02-17T21:38:56.331Z,99.90
2023-02-17T21:41:24.943Z,99.90
2023-02-17T21:44:10.969Z,99.90
2023-02-17T21:46:38.095Z,99.90
2023-02-17T21:49:05.043Z,99.90
2023-02-17T21:51:32.044Z,99.90
2023-02-17T21:53:59.394Z,99.90
2023-02-17T21:56:26.656Z,99.90
2023-02-17T21:58:54.849Z,99.90
2023-02-17T22:01:23.635Z,99.90
2023-02-17T22:03:50.873Z,99.90
2023-02-17T22:06:18.029Z,99.90
2023-02-17T22:08:45.883Z,99.90
2023-02-17T22:11:23.781Z,99.90
2023-02-17T22:13:54.524Z,99.90
2023-02-17T22:16:21.574Z,99.90
2023-02-17T22:18:48.412Z,99.90
2023-02-17T22:21:15.650Z,99.90
2023-02-17T22:23:42.764Z,99.90
2023-02-17T22:26:13.635Z,1.00
2023-02-17T22:28:40.532Z,1.00
2023-02-17T22:31:07.799Z,1.00
2023-02-17T22:33:34.834Z,1.00
2023-02-17T22:36:05.161Z,1.00
2023-02-17T22:38:32.394Z,1.00
2023-02-17T22:40:59.332Z,1.00
2023-02-17T22:43:26.356Z,1.00
2023-02-17T22:46:00.382Z,1.00
2023-02-17T22:48:28.642Z,1.00
2023-02-17T22:50:55.648Z,1.00
2023-02-17T22:53:22.600Z,1.00
2023-02-17T22:55:57.642Z,1.00
2023-02-17T22:58:26.216Z,1.00
2023-02-17T23:01:06.202Z,1.00
2023-02-17T23:03:33.845Z,1.00
2023-02-17T23:06:01.894Z,1.00
2023-02-17T23:08:28.712Z,1.00
2023-02-17T23:10:55.962Z,1.00
2023-02-17T23:13:22.924Z,1.00
2023-02-17T23:15:50.181Z,1.00
2023-02-17T23:18:18.560Z,1.00
2023-02-17T23:20:47.368Z,22.50
2023-02-17T23:23:15.057Z,16.40
2023-02-17T23:25:45.052Z,1.30
2023-02-17T23:28:12.726Z,5.60
2023-02-17T23:30:40.254Z,1.00
2023-02-17T23:33:07.095Z,2.00
2023-02-17T23:35:34.408Z,1.00
2023-02-17T23:38:01.341Z,1.00
2023-02-17T23:40:28.158Z,1.00
2023-02-17T23:42:54.948Z,1.00
2023-02-17T23:45:21.830Z,1.00
2023-02-17T23:47:48.700Z,1.00
2023-02-17T23:50:17.084Z,1.00
2023-02-17T23:52:44.262Z,1.00
2023-02-17T23:55:11.068Z,1.00
2023-02-17T23:57:40.995Z,1.00
